Time,TemperatureF,DewpointF,PressureIn,WindDirection,WindDirectionDegrees,WindSpeedMPH,WindSpeedGustMPH,Humidity,HourlyPrecipIn,Conditions,Clouds,dailyrainin,SoftwareType,DateUTC
2013-08-30 00:00:00,64.0,63.0,-100.00,South,180,0.0,1.0,94,0.00,,,-99.99,,2013-08-30 04:00:00,
2013-08-30 00:44:00,64.0,63.0,-100.00,South,180,0.0,1.0,94,0.00,,,-99.99,,2013-08-30 04:44:00,
2013-08-30 00:54:00,64.0,63.0,-100.00,South,180,0.0,1.0,94,0.00,,,-99.99,,2013-08-30 04:54:00,
2013-08-30 14:00:00,79.0,66.0,-100.00,WSW,245,8.0,12.0,63,0.00,,,-99.99,,2013-08-30 18:00:00,
2013-08-30 14:42:00,79.0,66.0,-100.00,WSW,245,8.0,12.0,63,0.00,,,-99.99,,2013-08-30 18:42:00,
2013-08-30 14:52:00,79.0,66.0,-100.00,WSW,245,8.0,12.0,63,0.00,,,-99.99,,2013-08-30 18:52:00,
2013-08-30 15:00:00,77.0,66.0,-100.00,SW,216,5.0,12.0,69,0.00,,,-99.99,,2013-08-30 19:00:00,
2013-08-30 15:42:00,77.0,66.0,-100.00,SW,216,5.0,12.0,69,0.00,,,-99.99,,2013-08-30 19:42:00,
2013-08-30 15:53:00,77.0,66.0,-100.00,SW,216,5.0,12.0,69,0.00,,,-99.99,,2013-08-30 19:53:00,
2013-08-30 16:00:00,78.0,67.0,-100.00,WSW,244,4.0,11.0,68,0.00,,,-99.99,,2013-08-30 20:00:00,
2013-08-30 16:43:00,78.0,67.0,-100.00,WSW,244,4.0,11.0,68,0.00,,,-99.99,,2013-08-30 20:43:00,
2013-08-30 16:52:00,78.0,67.0,-100.00,WSW,244,4.0,11.0,68,0.00,,,-99.99,,2013-08-30 20:52:00,
2013-08-30 17:00:00,79.0,67.0,-100.00,SW,233,4.0,12.0,68,0.00,,,-99.99,,2013-08-30 21:00:00,
2013-08-30 17:44:00,79.0,67.0,-100.00,SW,233,4.0,12.0,68,0.00,,,-99.99,,2013-08-30 21:44:00,
2013-08-30 17:55:00,79.0,67.0,-100.00,SW,233,4.0,12.0,68,0.00,,,-99.99,,2013-08-30 21:55:00,
2013-08-30 18:00:00,79.0,68.0,-100.00,SSW,204,3.0,11.0,70,0.00,,,-99.99,,2013-08-30 22:00:00,
2013-08-30 18:43:00,79.0,68.0,-100.00,SSW,204,3.0,11.0,70,0.00,,,-99.99,,2013-08-30 22:43:00,
2013-08-30 18:54:00,79.0,68.0,-100.00,SSW,204,3.0,11.0,70,0.00,,,-99.99,,2013-08-30 22:54:00,
2013-08-30 19:00:00,77.0,68.0,-100.00,South,189,3.0,9.0,74,0.00,,,-99.99,,2013-08-30 23:00:00,
2013-08-30 19:42:00,77.0,68.0,-100.00,South,189,3.0,9.0,74,0.00,,,-99.99,,2013-08-30 23:42:00,
2013-08-30 19:53:00,77.0,68.0,-100.00,South,189,3.0,9.0,74,0.00,,,-99.99,,2013-08-30 23:53:00,
2013-08-30 20:00:00,74.0,68.0,-100.00,SW,215,3.0,7.0,82,0.00,,,-99.99,,2013-08-31 00:00:00,
2013-08-30 20:42:00,74.0,68.0,-100.00,SW,215,3.0,7.0,82,0.00,,,-99.99,,2013-08-31 00:42:00,
2013-08-30 20:52:00,74.0,68.0,-100.00,SW,215,3.0,7.0,82,0.00,,,-99.99,,2013-08-31 00:52:00,
2013-08-30 21:00:00,72.0,68.0,-100.00,SW,221,5.0,8.0,87,0.00,,,-99.99,,2013-08-31 01:00:00,
2013-08-30 21:42:00,72.0,68.0,-100.00,SW,221,5.0,8.0,87,0.00,,,-99.99,,2013-08-31 01:42:00,
2013-08-30 21:52:00,72.0,68.0,-100.00,SW,221,5.0,8.0,87,0.00,,,-99.99,,2013-08-31 01:52:00,
2013-08-30 22:00:00,71.0,67.0,-100.00,SSW,196,3.0,8.0,90,0.00,,,-99.99,,2013-08-31 02:00:00,
2013-08-30 22:42:00,71.0,67.0,-100.00,SSW,196,3.0,8.0,90,0.00,,,-99.99,,2013-08-31 02:42:00,
2013-08-30 22:52:00,71.0,67.0,-100.00,SSW,196,3.0,8.0,90,0.00,,,-99.99,,2013-08-31 02:52:00,
2013-08-30 23:00:00,69.0,67.0,-100.00,SW,215,3.0,7.0,92,0.00,,,-99.99,,2013-08-31 03:00:00,
2013-08-30 23:45:00,69.0,67.0,-100.00,SW,215,3.0,7.0,92,0.00,,,-99.99,,2013-08-31 03:45:00,
2013-08-30 23:54:00,69.0,67.0,-100.00,SW,215,3.0,7.0,92,0.00,,,-99.99,,2013-08-31 03:54:00,